createdAt,value
2022-10-24T19:48:48.407Z,8.77
2022-10-24T19:51:16.482Z,8.73
2022-10-24T19:53:44.034Z,8.75
2022-10-24T19:56:22.587Z,8.76
2022-10-24T19:58:52.262Z,8.69
2022-10-24T20:01:24.697Z,8.70
2022-10-24T20:03:52.078Z,8.71
2022-10-24T20:06:19.552Z,8.56
2022-10-24T20:08:47.420Z,8.54
2022-10-24T20:11:20.325Z,8.52
2022-10-24T20:13:48.042Z,8.42
2022-10-24T20:16:14.681Z,8.46
2022-10-24T20:18:43.622Z,8.47
2022-10-24T20:21:12.995Z,8.52
2022-10-24T20:23:43.130Z,8.42
2022-10-24T20:26:22.083Z,8.44
2022-10-24T20:28:50.914Z,8.34
2022-10-24T20:31:23.369Z,8.31
2022-10-24T20:33:50.864Z,8.53
2022-10-24T20:36:18.169Z,9.05
2022-10-24T20:38:44.856Z,9.73
2022-10-24T20:41:11.477Z,9.66
2022-10-24T20:43:38.227Z,9.53
2022-10-24T20:46:06.195Z,9.57
2022-10-24T20:48:34.279Z,9.66
2022-10-24T20:51:08.854Z,9.63
2022-10-24T20:53:35.945Z,9.54
2022-10-24T20:56:05.203Z,9.47
2022-10-24T20:58:32.193Z,9.39
2022-10-24T21:00:58.927Z,9.27
2022-10-24T21:03:25.610Z,9.26
2022-10-24T21:05:52.234Z,9.04
2022-10-24T21:08:18.810Z,8.91
2022-10-24T21:10:45.413Z,8.89
2022-10-24T21:13:12.038Z,8.87
2022-10-24T21:15:38.707Z,8.81
2022-10-24T21:18:05.838Z,8.77
2022-10-24T21:20:32.437Z,8.62
2022-10-24T21:22:59.100Z,8.62
2022-10-24T21:25:25.725Z,8.60
2022-10-24T21:27:52.406Z,8.48
2022-10-24T21:30:19.035Z,8.52
2022-10-24T21:32:46.024Z,8.46
2022-10-24T21:35:12.645Z,8.43
2022-10-24T21:37:39.265Z,8.38
2022-10-24T21:40:06.346Z,8.37
2022-10-24T21:42:35.513Z,8.37
2022-10-24T21:45:02.132Z,8.37
2022-10-24T21:47:28.850Z,8.43
2022-10-24T21:49:55.479Z,8.49
2022-10-24T21:52:22.203Z,8.52
2022-10-24T21:54:48.884Z,8.36
2022-10-24T21:57:15.602Z,8.50
2022-10-24T21:59:42.244Z,8.62
2022-10-24T22:02:09.366Z,8.63
2022-10-24T22:04:36.235Z,8.25
2022-10-24T22:07:03.056Z,8.50
2022-10-24T22:09:29.899Z,8.71
2022-10-24T22:11:57.929Z,8.75
2022-10-24T22:14:25.211Z,8.39
2022-10-24T22:16:52.217Z,8.12
2022-10-24T22:19:19.280Z,8.28
2022-10-24T22:21:48.659Z,8.19
2022-10-24T22:24:18.803Z,8.35
2022-10-24T22:26:45.925Z,8.44
2022-10-24T22:29:18.122Z,8.47
2022-10-24T22:31:45.222Z,8.49
2022-10-24T22:34:17.102Z,8.45
2022-10-24T22:37:19.302Z,8.40
2022-10-24T22:39:46.256Z,8.41
2022-10-24T22:42:19.129Z,8.47
2022-10-24T22:44:47.279Z,8.49
2022-10-24T22:47:35.233Z,8.57
2022-10-24T22:50:28.277Z,8.57
2022-10-24T22:52:55.125Z,8.56
2022-10-24T22:55:45.517Z,8.47
2022-10-24T22:58:12.549Z,8.45
2022-10-24T23:00:39.345Z,8.38
2022-10-24T23:03:21.067Z,8.39
2022-10-24T23:05:54.464Z,8.33
2022-10-24T23:08:40.146Z,8.20
2022-10-24T23:11:09.338Z,8.17
2022-10-24T23:13:36.327Z,8.07
2022-10-24T23:16:19.730Z,8.01
2022-10-24T23:18:46.695Z,8.00
2022-10-24T23:21:31.532Z,8.11
2022-10-24T23:23:58.413Z,8.18
2022-10-24T23:26:30.479Z,8.23
2022-10-24T23:29:10.101Z,8.30
2022-10-24T23:31:36.955Z,8.26
2022-10-24T23:34:04.016Z,8.28
2022-10-24T23:36:30.920Z,8.33
2022-10-24T23:38:57.845Z,8.25
2022-10-24T23:41:24.723Z,8.21
2022-10-24T23:43:51.673Z,8.13
2022-10-24T23:47:03.459Z,8.08
2022-10-24T23:49:34.553Z,8.02
2022-10-24T23:52:32.026Z,8.11
2022-10-24T23:54:58.894Z,8.23
2022-10-24T23:57:25.756Z,8.29
2022-10-24T23:59:52.392Z,8.32
